createdAt,value
2022-08-07T00:00:04.838Z,45.5
2022-08-07T00:15:02.799Z,45.5
2022-08-07T00:30:02.446Z,45.5
2022-08-07T00:45:06.697Z,46
2022-08-07T01:00:02.647Z,46
2022-08-07T01:15:02.835Z,46
2022-08-07T01:30:05.440Z,45.5
2022-08-07T01:45:02.681Z,45.5
2022-08-07T02:00:01.317Z,45.5
2022-08-07T02:15:05.806Z,46
2022-08-07T02:30:01.818Z,45.5
2022-08-07T02:45:04.637Z,45.5
2022-08-07T03:00:03.586Z,45.5
2022-08-07T03:15:05.645Z,45.5
2022-08-07T03:30:01.377Z,45
2022-08-07T04:00:01.449Z,45.5
2022-08-07T04:15:05.860Z,45.5
2022-08-07T04:30:03.630Z,45.5
2022-08-07T04:45:05.713Z,45.5
2022-08-07T05:00:05.347Z,45.5
2022-08-07T05:15:02.683Z,45
2022-08-07T05:30:04.329Z,46
2022-08-07T05:45:03.796Z,45
2022-08-07T06:00:04.843Z,45.5
2022-08-07T06:15:03.761Z,46
2022-08-07T06:30:05.839Z,46.5
2022-08-07T06:45:01.577Z,46.5
2022-08-07T07:00:10.229Z,47.5
2022-08-07T07:15:04.687Z,48
2022-08-07T07:30:05.596Z,48
2022-08-07T07:45:01.923Z,48
2022-08-07T08:00:05.686Z,48
2022-08-07T08:15:06.671Z,48
2022-08-07T08:30:02.818Z,47.5
2022-08-07T08:45:05.439Z,48.5
2022-08-07T09:00:01.751Z,48
2022-08-07T09:15:01.562Z,49
2022-08-07T09:30:02.866Z,48
2022-08-07T09:45:02.540Z,47.5
2022-08-07T10:00:03.735Z,48.5
2022-08-07T10:15:01.843Z,48
2022-08-07T10:30:05.603Z,47
2022-08-07T10:45:01.371Z,47
2022-08-07T11:00:04.742Z,46.5
2022-08-07T11:15:05.660Z,46
2022-08-07T11:30:01.445Z,45
2022-08-07T11:45:03.834Z,46.5
2022-08-07T12:00:01.333Z,46.5
2022-08-07T12:15:01.744Z,47
2022-08-07T12:30:03.551Z,48
2022-08-07T12:45:03.601Z,48.5
2022-08-07T13:00:03.637Z,47.5
2022-08-07T13:15:05.735Z,47
2022-08-07T13:30:04.449Z,47
2022-08-07T13:45:01.363Z,46
2022-08-07T14:00:03.770Z,45.5
2022-08-07T14:15:05.845Z,46
2022-08-07T14:30:04.729Z,46.5
2022-08-07T14:45:02.484Z,46.5
2022-08-07T15:00:04.721Z,47
2022-08-07T15:15:04.672Z,47
2022-08-07T15:30:02.524Z,47
2022-08-07T15:45:09.338Z,46.5
2022-08-07T16:00:06.133Z,46
2022-08-07T16:15:03.418Z,47.5
2022-08-07T16:30:02.315Z,49
2022-08-07T16:45:01.544Z,49.5
2022-08-07T17:00:02.355Z,50
2022-08-07T17:15:03.565Z,51
2022-08-07T17:30:12.306Z,50.5
2022-08-07T17:45:03.537Z,51
2022-08-07T18:00:02.638Z,50
2022-08-07T18:15:03.863Z,49.5
2022-08-07T18:30:04.326Z,48
2022-08-07T18:45:03.818Z,48.5
2022-08-07T19:00:02.417Z,48
2022-08-07T19:15:04.574Z,46.5
2022-08-07T19:30:02.477Z,47
2022-08-07T19:45:05.691Z,47.5
2022-08-07T20:00:01.443Z,47.5
2022-08-07T20:15:05.861Z,47.5
2022-08-07T20:30:05.587Z,47
2022-08-07T20:45:01.341Z,47
2022-08-07T21:00:01.738Z,46.5
2022-08-07T21:15:03.541Z,48
2022-08-07T21:30:03.572Z,48
2022-08-07T21:45:04.728Z,48
2022-08-07T22:00:03.559Z,48
2022-08-07T22:15:03.521Z,48
2022-08-07T22:30:04.608Z,48.5
2022-08-07T22:45:04.554Z,48
2022-08-07T23:00:02.442Z,48.5
2022-08-07T23:15:05.556Z,48
2022-08-07T23:30:12.524Z,48.5
2022-08-07T23:45:05.775Z,48.5
